Time;durP1;ratioP1;P1;durP2;ratioP2;P2;SDS_P1;SDS_P2;PMS_P1;PMS_P2;Temp;Humidity;BMP_temperature;BMP_pressure;BME280_temperature;BME280_humidity;BME280_pressure;Samples;Min_cycle;Max_cycle;Signal;HPM_P1;HPM_P2
2022/09/21 00:00:33;;;;;;;3.00;2.15;;;12.30;73.00;;;;;;5097048;28;20450;-68
2022/09/21 00:02:59;;;;;;;2.47;2.28;;;12.30;73.10;;;;;;5096315;28;20059;-68
2022/09/21 00:05:25;;;;;;;2.72;2.15;;;12.30;73.10;;;;;;5095914;28;20035;-68
2022/09/21 00:07:51;;;;;;;2.28;2.08;;;12.30;73.10;;;;;;5096982;28;20107;-68
2022/09/21 00:10:19;;;;;;;2.20;2.00;;;12.30;73.10;;;;;;5097015;28;20025;-68
2022/09/21 00:12:47;;;;;;;2.20;2.00;;;12.30;73.10;;;;;;5096846;28;20104;-68
2022/09/21 00:15:16;;;;;;;5.18;2.10;;;12.30;73.20;;;;;;5095470;28;20031;-68
2022/09/21 00:17:43;;;;;;;2.30;2.03;;;12.40;73.30;;;;;;5095064;28;20024;-68
2022/09/21 00:20:09;;;;;;;2.25;2.05;;;12.30;73.20;;;;;;5096699;28;20055;-68
2022/09/21 00:22:34;;;;;;;2.38;2.00;;;12.40;73.30;;;;;;5095488;28;20032;-67
2022/09/21 00:25:02;;;;;;;2.10;1.98;;;12.40;73.30;;;;;;5095551;28;20031;-68
2022/09/21 00:27:29;;;;;;;1.90;1.80;;;12.40;73.30;;;;;;5095680;28;20474;-68
2022/09/21 00:29:56;;;;;;;2.33;2.13;;;12.40;73.30;;;;;;5096779;28;20036;-68
2022/09/21 00:32:23;;;;;;;2.20;2.00;;;12.50;73.30;;;;;;5095244;28;20539;-68
2022/09/21 00:34:50;;;;;;;2.35;2.17;;;12.50;73.30;;;;;;5094624;28;20028;-69
2022/09/21 00:37:17;;;;;;;2.58;2.35;;;12.40;73.30;;;;;;5096370;28;20032;-67
2022/09/21 00:39:42;;;;;;;2.20;2.00;;;12.50;73.30;;;;;;5096360;28;20036;-68
2022/09/21 00:42:24;;;;;;;2.53;1.90;;;12.50;73.30;;;;;;5095973;28;20032;-68
2022/09/21 00:44:51;;;;;;;2.10;1.85;;;12.50;73.40;;;;;;5096248;28;20458;-68
2022/09/21 00:47:25;;;;;;;2.28;2.00;;;12.50;73.30;;;;;;5077818;28;20109;-70
2022/09/21 00:49:54;;;;;;;2.13;2.03;;;12.50;73.30;;;;;;5078336;28;20028;-68
2022/09/21 00:52:23;;;;;;;1.88;1.77;;;12.50;73.40;;;;;;5077828;28;20477;-67
2022/09/21 00:55:02;;;;;;;2.25;2.05;;;12.50;73.40;;;;;;5095941;28;20057;-66
2022/09/21 00:57:34;;;;;;;2.17;1.98;;;12.50;73.40;;;;;;5095964;28;20028;-68
2022/09/21 01:00:05;;;;;;;2.20;2.00;;;12.60;73.50;;;;;;5077683;28;20032;-69
2022/09/21 01:02:31;;;;;;;2.13;1.92;;;12.50;73.40;;;;;;5095285;28;20084;-67
2022/09/21 01:04:57;;;;;;;2.03;1.90;;;12.50;73.50;;;;;;5077455;28;20028;-67
2022/09/21 01:07:31;;;;;;;2.17;1.98;;;12.50;73.60;;;;;;5096076;28;20035;-68
2022/09/21 01:10:01;;;;;;;2.67;2.40;;;12.50;73.70;;;;;;5077918;28;20081;-70
2022/09/21 01:12:33;;;;;;;2.13;1.92;;;12.50;73.70;;;;;;5060399;28;20043;-69
2022/09/21 01:15:17;;;;;;;2.10;2.00;;;12.60;73.80;;;;;;5095284;28;20051;-68
2022/09/21 01:18:17;;;;;;;2.72;2.25;;;12.60;73.80;;;;;;5095380;28;20024;-68
2022/09/21 01:21:14;;;;;;;2.30;2.10;;;12.60;73.90;;;;;;5095796;28;20104;-67
2022/09/21 01:24:01;;;;;;;2.20;2.00;;;12.60;74.00;;;;;;5086565;28;20040;-68
2022/09/21 01:26:52;;;;;;;3.90;1.92;;;12.60;73.80;;;;;;5096060;28;20032;-68
2022/09/21 01:29:52;;;;;;;2.42;1.95;;;12.60;73.90;;;;;;5077106;28;20035;-69
2022/09/21 01:32:24;;;;;;;1.80;1.70;;;12.60;73.90;;;;;;5077133;28;20096;-68
2022/09/21 01:34:57;;;;;;;2.65;2.17;;;12.60;73.80;;;;;;5077057;28;20024;-69
2022/09/21 01:37:54;;;;;;;2.20;2.00;;;12.60;73.80;;;;;;5095501;28;20024;-68
2022/09/21 01:40:33;;;;;;;1.92;1.83;;;12.60;74.00;;;;;;5081939;28;20040;-68
2022/09/21 01:43:01;;;;;;;2.17;2.00;;;12.60;73.90;;;;;;5081983;28;20048;-68
2022/09/21 01:45:40;;;;;;;2.10;2.00;;;12.60;73.90;;;;;;5093571;28;20024;-68
2022/09/21 01:48:07;;;;;;;2.20;2.00;;;12.60;74.00;;;;;;5093490;28;20021;-68
2022/09/21 01:50:47;;;;;;;2.47;2.28;;;12.60;74.00;;;;;;5095232;28;20024;-69
2022/09/21 01:53:21;;;;;;;2.60;2.38;;;12.60;74.10;;;;;;5095141;28;20024;-67
2022/09/21 01:55:54;;;;;;;2.40;2.20;;;12.60;74.10;;;;;;5094786;28;20032;-68
2022/09/21 01:58:29;;;;;;;3.08;2.13;;;12.60;74.10;;;;;;5093230;28;20032;-68
2022/09/21 02:00:56;;;;;;;2.65;2.30;;;12.60;74.10;;;;;;5094932;28;20024;-68
2022/09/21 02:03:47;;;;;;;4.13;2.22;;;12.60;74.10;;;;;;5093184;28;20122;-68
2022/09/21 02:06:15;;;;;;;2.20;2.00;;;12.60;74.20;;;;;;5093255;28;20016;-69
2022/09/21 02:08:41;;;;;;;3.80;2.33;;;12.60;74.10;;;;;;5094655;28;20028;-67
2022/09/21 02:11:07;;;;;;;2.47;2.28;;;12.60;74.10;;;;;;5076765;28;20024;-68
2022/09/21 02:13:38;;;;;;;2.55;2.35;;;12.60;74.20;;;;;;5094239;28;20028;-68
2022/09/21 02:16:07;;;;;;;2.50;2.30;;;12.50;74.20;;;;;;5093512;28;20462;-69
2022/09/21 02:18:47;;;;;;;4.53;2.33;;;12.50;74.20;;;;;;5094378;28;20111;-68
2022/09/21 02:21:40;;;;;;;2.60;2.40;;;12.50;74.30;;;;;;5092899;28;20415;-69
2022/09/21 02:24:23;;;;;;;2.90;2.40;;;12.50;74.40;;;;;;5094170;28;20390;-68
2022/09/21 02:26:58;;;;;;;2.85;2.55;;;12.50;74.40;;;;;;5094303;28;20118;-68
2022/09/21 02:29:38;;;;;;;2.88;2.40;;;12.40;74.50;;;;;;5092830;28;20020;-68
2022/09/21 02:32:12;;;;;;;2.50;2.30;;;12.40;74.60;;;;;;5094405;28;20024;-68
2022/09/21 02:34:59;;;;;;;2.92;2.63;;;12.40;74.70;;;;;;5094097;28;20078;-68
2022/09/21 02:37:40;;;;;;;2.53;2.33;;;12.40;74.80;;;;;;5094288;28;20062;-67
2022/09/21 02:40:21;;;;;;;3.67;2.80;;;12.40;74.70;;;;;;5094085;28;20093;-68
2022/09/21 02:42:54;;;;;;;3.88;2.90;;;12.40;74.70;;;;;;5094352;28;20059;-69
2022/09/21 02:45:25;;;;;;;3.35;2.80;;;12.40;74.80;;;;;;5093627;28;20481;-68
2022/09/21 02:47:58;;;;;;;3.83;3.10;;;12.40;74.90;;;;;;5094320;28;20103;-68
2022/09/21 02:50:50;;;;;;;3.42;3.10;;;12.40;75.00;;;;;;5094097;28;20059;-67
2022/09/21 02:53:21;;;;;;;6.22;2.83;;;12.40;74.90;;;;;;5092421;28;20036;-68
2022/09/21 02:55:49;;;;;;;3.78;3.10;;;12.30;74.80;;;;;;5075782;28;20446;-68
2022/09/21 02:58:17;;;;;;;3.20;2.90;;;12.30;75.00;;;;;;5093683;28;20085;-66
2022/09/21 03:00:42;;;;;;;3.60;3.10;;;12.30;75.10;;;;;;5093856;28;20021;-69
2022/09/21 03:03:20;;;;;;;4.32;3.33;;;12.30;75.20;;;;;;5093720;28;20082;-68
2022/09/21 03:05:48;;;;;;;4.72;3.00;;;12.30;75.30;;;;;;5093615;28;20473;-68
2022/09/21 03:08:15;;;;;;;3.55;3.10;;;12.30;75.30;;;;;;5075747;28;20035;-68
2022/09/21 03:10:41;;;;;;;3.60;2.97;;;12.30;75.30;;;;;;5093601;28;20024;-69
2022/09/21 03:13:08;;;;;;;4.05;3.20;;;12.30;75.40;;;;;;5075611;28;20359;-68
2022/09/21 03:15:38;;;;;;;3.58;3.10;;;12.30;75.40;;;;;;5093765;28;20051;-68
2022/09/21 03:18:05;;;;;;;3.40;3.00;;;12.30;75.50;;;;;;5075713;28;20030;-68
2022/09/21 03:20:31;;;;;;;3.33;2.95;;;12.30;75.50;;;;;;5093401;28;20033;-68
2022/09/21 03:22:58;;;;;;;3.55;3.05;;;12.20;75.50;;;;;;5093544;28;20051;-68
2022/09/21 03:25:24;;;;;;;3.47;2.95;;;12.30;75.60;;;;;;5075716;28;20043;-67
2022/09/21 03:27:52;;;;;;;3.30;2.70;;;12.30;75.70;;;;;;5093043;28;20386;-68
2022/09/21 03:30:22;;;;;;;3.47;2.90;;;12.30;75.70;;;;;;5093518;28;20089;-67
2022/09/21 03:32:52;;;;;;;3.97;3.00;;;12.30;75.90;;;;;;5093944;28;20047;-70
2022/09/21 03:35:20;;;;;;;3.40;2.95;;;12.30;75.80;;;;;;5075252;28;20024;-68
2022/09/21 03:37:47;;;;;;;3.55;3.08;;;12.30;76.30;;;;;;5093375;28;20039;-70
2022/09/21 03:40:14;;;;;;;3.95;3.10;;;12.30;75.80;;;;;;5075090;28;20458;-69
2022/09/21 03:42:40;;;;;;;3.67;2.80;;;12.20;75.80;;;;;;5078102;28;20044;-69
2022/09/21 03:45:07;;;;;;;3.45;2.58;;;12.20;75.90;;;;;;5075722;28;20084;-69
2022/09/21 03:47:33;;;;;;;4.78;3.00;;;12.30;76.00;;;;;;5091883;28;20028;-71
2022/09/21 03:49:59;;;;;;;4.47;3.55;;;12.30;76.00;;;;;;5093256;28;20073;-69
2022/09/21 03:52:25;;;;;;;3.40;2.80;;;12.30;76.00;;;;;;5093209;28;20373;-71
2022/09/21 03:54:51;;;;;;;4.15;2.97;;;12.30;76.00;;;;;;5093034;28;20466;-68
2022/09/21 03:57:16;;;;;;;4.03;3.10;;;12.30;76.20;;;;;;5092152;28;20121;-70
2022/09/21 03:59:42;;;;;;;3.35;2.85;;;12.30;76.20;;;;;;5092183;28;20028;-68
2022/09/21 04:02:08;;;;;;;3.88;3.05;;;12.20;76.20;;;;;;5092963;28;20024;-68
2022/09/21 04:04:34;;;;;;;4.40;3.28;;;12.30;76.30;;;;;;5093240;28;20035;-68
2022/09/21 04:06:59;;;;;;;4.82;3.35;;;12.30;76.20;;;;;;5095111;28;20462;-71
2022/09/21 04:09:25;;;;;;;3.67;3.00;;;12.20;76.20;;;;;;5096776;28;20028;-68
2022/09/21 04:11:52;;;;;;;4.75;3.53;;;12.30;76.30;;;;;;5094992;28;20059;-68
2022/09/21 04:14:19;;;;;;;3.90;2.90;;;12.30;76.30;;;;;;5096251;28;20064;-65
2022/09/21 04:16:45;;;;;;;3.47;3.10;;;12.30;76.40;;;;;;5096019;28;20024;-69
2022/09/21 04:19:11;;;;;;;3.67;2.92;;;12.30;76.50;;;;;;5095989;28;20027;-68
2022/09/21 04:21:37;;;;;;;3.15;2.83;;;12.30;76.50;;;;;;5094809;28;20023;-70
2022/09/21 04:24:03;;;;;;;6.75;5.15;;;12.30;76.60;;;;;;5095935;28;20385;-69
2022/09/21 04:26:31;;;;;;;7.25;4.75;;;12.20;76.60;;;;;;5094978;28;20068;-68
2022/09/21 04:28:57;;;;;;;8.27;5.85;;;12.30;76.60;;;;;;5094572;28;20024;-68
2022/09/21 04:31:24;;;;;;;7.70;5.50;;;12.30;76.70;;;;;;5094575;28;20035;-69
2022/09/21 04:33:51;;;;;;;6.38;4.97;;;12.30;76.70;;;;;;5093028;28;20111;-69
2022/09/21 04:36:18;;;;;;;5.10;4.10;;;12.30;76.80;;;;;;5095250;28;20039;-68
2022/09/21 04:38:44;;;;;;;4.82;3.70;;;12.40;76.90;;;;;;5094728;28;20028;-69
2022/09/21 04:41:10;;;;;;;4.47;3.65;;;12.40;76.70;;;;;;5095040;28;20454;-67
2022/09/21 04:43:36;;;;;;;3.53;3.17;;;12.40;76.70;;;;;;5094801;28;20087;-70
2022/09/21 04:46:11;;;;;;;3.30;2.88;;;12.40;76.60;;;;;;5095047;28;20031;-72
2022/09/21 04:48:38;;;;;;;3.65;2.80;;;12.40;76.80;;;;;;5094860;28;20373;-73
2022/09/21 04:51:05;;;;;;;3.13;2.65;;;12.40;76.90;;;;;;5095472;28;20016;-70
2022/09/21 04:53:31;;;;;;;4.07;2.78;;;12.50;77.10;;;;;;5095698;28;20047;-70
2022/09/21 04:55:56;;;;;;;3.47;2.63;;;12.50;77.10;;;;;;5093815;28;20481;-70
2022/09/21 04:58:22;;;;;;;2.60;2.40;;;12.60;77.10;;;;;;5094244;28;20039;-69
2022/09/21 05:00:52;;;;;;;2.95;2.65;;;12.70;77.30;;;;;;5094176;28;20021;-69
2022/09/21 05:03:18;;;;;;;2.95;2.40;;;12.70;76.90;;;;;;5093558;28;20028;-70
2022/09/21 05:05:55;;;;;;;3.22;2.65;;;12.80;76.90;;;;;;5093695;28;20073;-70
2022/09/21 05:11:11;;;;;;;4.65;2.92;;;12.90;76.80;;;;;;5093598;28;20385;-69
2022/09/21 05:13:38;;;;;;;3.25;2.45;;;13.00;76.70;;;;;;5095153;28;20024;-69
2022/09/21 05:16:05;;;;;;;2.90;2.60;;;13.10;76.60;;;;;;5092882;28;20453;-70
2022/09/21 05:18:30;;;;;;;4.13;2.58;;;13.10;76.50;;;;;;5093151;28;20028;-70
2022/09/21 05:20:58;;;;;;;3.90;2.63;;;13.10;76.50;;;;;;5093169;28;20040;-70
2022/09/21 05:23:24;;;;;;;3.20;2.88;;;13.20;76.40;;;;;;5094566;28;20502;-69
2022/09/21 05:25:50;;;;;;;4.90;3.30;;;13.20;76.30;;;;;;5093191;28;20047;-72
2022/09/21 05:28:18;;;;;;;2.95;2.50;;;13.20;76.30;;;;;;5092506;28;20466;-72
2022/09/21 05:30:47;;;;;;;4.15;3.22;;;13.30;76.30;;;;;;5092458;28;20525;-68
2022/09/21 05:33:18;;;;;;;3.35;3.03;;;13.40;76.30;;;;;;5096221;28;20035;-71
2022/09/21 05:35:53;;;;;;;3.58;2.90;;;13.40;76.20;;;;;;5094080;28;20397;-73
2022/09/21 05:38:19;;;;;;;3.00;2.70;;;13.40;76.00;;;;;;5087678;28;20031;-70
2022/09/21 05:40:49;;;;;;;3.50;3.20;;;13.50;76.00;;;;;;5093909;28;20024;-70
2022/09/21 05:43:15;;;;;;;3.15;2.80;;;13.50;75.90;;;;;;5093518;28;20052;-70
2022/09/21 05:45:57;;;;;;;3.30;2.50;;;13.60;75.90;;;;;;5074986;28;20024;-68
2022/09/21 05:48:28;;;;;;;3.90;2.58;;;13.70;75.80;;;;;;5093841;28;20028;-68
2022/09/21 05:51:09;;;;;;;3.92;3.08;;;13.70;75.70;;;;;;5093209;28;20052;-70
2022/09/21 05:54:03;;;;;;;3.58;2.70;;;13.70;75.60;;;;;;5075728;28;20028;-67
2022/09/21 05:56:29;;;;;;;3.55;2.67;;;13.80;75.60;;;;;;5094200;28;20028;-68
2022/09/21 05:59:06;;;;;;;3.33;3.03;;;13.80;75.50;;;;;;5075915;28;20024;-69
2022/09/21 06:01:59;;;;;;;2.90;2.53;;;13.90;75.50;;;;;;5076124;28;20039;-69
2022/09/21 06:04:26;;;;;;;3.42;2.92;;;13.90;75.40;;;;;;5094735;28;20032;-69
2022/09/21 06:06:51;;;;;;;3.05;2.72;;;13.90;75.50;;;;;;5094591;28;20031;-68
2022/09/21 06:09:17;;;;;;;3.60;2.85;;;14.00;75.20;;;;;;5094743;28;20032;-68
2022/09/21 06:11:43;;;;;;;3.20;2.90;;;14.00;75.20;;;;;;5094657;28;20458;-72
2022/09/21 06:14:08;;;;;;;3.50;2.95;;;14.00;75.70;;;;;;5076330;28;20466;-68
2022/09/21 06:16:38;;;;;;;2.92;2.65;;;14.00;75.10;;;;;;5076056;28;20073;-69
2022/09/21 06:19:04;;;;;;;2.50;2.30;;;14.10;75.10;;;;;;5094315;28;20023;-69
2022/09/21 06:21:30;;;;;;;2.75;2.55;;;14.10;75.00;;;;;;5076737;28;20466;-68
2022/09/21 06:23:55;;;;;;;3.22;2.80;;;14.10;74.90;;;;;;5094364;28;20040;-69
2022/09/21 06:26:21;;;;;;;2.90;2.60;;;14.10;74.90;;;;;;5076237;28;20032;-68
2022/09/21 06:28:47;;;;;;;2.72;2.42;;;14.20;74.90;;;;;;5075812;28;20020;-68
2022/09/21 06:31:12;;;;;;;2.83;2.50;;;14.10;74.80;;;;;;5094016;28;20024;-69
2022/09/21 06:33:38;;;;;;;2.65;2.45;;;14.10;74.80;;;;;;5076099;28;20040;-68
2022/09/21 06:36:04;;;;;;;2.35;2.15;;;14.10;74.80;;;;;;5075988;28;20052;-68
2022/09/21 06:38:29;;;;;;;2.50;2.30;;;14.10;74.80;;;;;;5075884;28;20038;-67
2022/09/21 06:41:01;;;;;;;2.58;2.38;;;14.10;74.80;;;;;;5093998;28;20020;-68
2022/09/21 06:43:26;;;;;;;2.78;2.55;;;14.10;74.90;;;;;;5085518;28;20397;-68
2022/09/21 06:45:57;;;;;;;2.40;2.20;;;14.10;74.90;;;;;;5094069;28;20024;-69
2022/09/21 06:48:24;;;;;;;1.92;1.83;;;14.10;75.00;;;;;;5092786;28;20084;-69
2022/09/21 06:50:50;;;;;;;1.88;1.77;;;14.10;75.00;;;;;;5094264;28;20028;-68
2022/09/21 06:53:16;;;;;;;2.60;2.22;;;14.10;75.00;;;;;;5092686;28;20148;-69
2022/09/21 06:55:42;;;;;;;2.20;2.00;;;14.10;75.00;;;;;;5094004;28;20024;-68
2022/09/21 06:58:08;;;;;;;2.40;2.20;;;14.10;75.00;;;;;;5093685;28;20374;-69
2022/09/21 07:00:34;;;;;;;2.45;2.05;;;14.10;75.10;;;;;;5092649;28;20031;-68
2022/09/21 07:02:59;;;;;;;1.77;1.67;;;14.00;75.10;;;;;;5093961;28;20032;-69
2022/09/21 07:05:25;;;;;;;2.10;1.90;;;14.00;75.10;;;;;;5092598;28;20059;-68
2022/09/21 07:07:57;;;;;;;1.98;1.88;;;14.10;75.20;;;;;;5093922;28;20099;-68
2022/09/21 07:10:23;;;;;;;1.95;1.85;;;14.10;75.10;;;;;;5093880;28;20024;-69
2022/09/21 07:12:50;;;;;;;1.85;1.75;;;14.10;75.10;;;;;;5093661;28;20030;-68
2022/09/21 07:15:16;;;;;;;2.15;1.98;;;14.10;75.10;;;;;;5093809;28;20043;-68
2022/09/21 07:17:43;;;;;;;2.00;1.90;;;14.20;75.00;;;;;;5094259;28;20024;-68
2022/09/21 07:20:09;;;;;;;1.80;1.70;;;14.30;75.00;;;;;;5092473;28;20503;-69
2022/09/21 07:22:35;;;;;;;1.75;1.65;;;14.40;74.90;;;;;;5093510;28;20489;-68
2022/09/21 07:25:02;;;;;;;3.05;1.83;;;14.40;74.80;;;;;;5092654;28;20028;-68
2022/09/21 07:27:30;;;;;;;1.80;1.70;;;14.50;74.60;;;;;;5093413;28;20040;-69
2022/09/21 07:29:55;;;;;;;1.90;1.70;;;14.70;75.10;;;;;;5093676;28;20458;-68
2022/09/21 07:32:21;;;;;;;1.58;1.48;;;14.70;74.20;;;;;;5093573;28;20206;-67
2022/09/21 07:34:47;;;;;;;1.95;1.83;;;14.80;74.10;;;;;;5092113;28;20130;-68
2022/09/21 07:37:13;;;;;;;2.22;2.03;;;14.70;73.90;;;;;;5093688;28;20027;-68
2022/09/21 07:39:39;;;;;;;2.28;2.08;;;14.70;74.00;;;;;;5093695;28;20028;-68
2022/09/21 07:42:05;;;;;;;1.83;1.73;;;14.60;74.00;;;;;;5097002;28;20035;-69
2022/09/21 07:44:33;;;;;;;1.90;1.80;;;14.60;74.20;;;;;;5097570;28;20028;-69
2022/09/21 07:46:59;;;;;;;3.10;2.13;;;14.60;74.20;;;;;;5097432;28;20044;-69
2022/09/21 07:49:24;;;;;;;2.20;2.00;;;14.60;74.30;;;;;;5097459;28;20028;-68
2022/09/21 07:51:50;;;;;;;2.22;2.00;;;14.60;74.40;;;;;;5097158;28;20024;-68
2022/09/21 07:54:16;;;;;;;2.20;2.10;;;14.50;74.30;;;;;;5079080;28;20032;-67
2022/09/21 07:59:04;;;;;;;2.42;2.22;;;14.60;74.40;;;;;;5097258;28;20028;-68
2022/09/21 07:59:27;;;;;;;1.80;1.70;;;14.60;74.30;;;;;;5096888;28;20089;-68
2022/09/21 08:01:53;;;;;;;2.10;2.00;;;14.60;74.30;;;;;;5097257;28;20454;-68
2022/09/21 08:04:19;;;;;;;2.28;2.08;;;14.70;74.30;;;;;;5078972;28;20035;-69
2022/09/21 08:06:44;;;;;;;2.28;2.08;;;14.80;74.20;;;;;;5096840;28;20028;-69
2022/09/21 08:09:10;;;;;;;2.28;2.08;;;14.80;74.00;;;;;;5096821;28;20024;-69
2022/09/21 08:11:43;;;;;;;2.08;1.90;;;14.90;73.90;;;;;;5096988;28;20071;-72
2022/09/21 08:14:09;;;;;;;2.00;1.90;;;15.00;73.80;;;;;;5097177;28;20028;-68
2022/09/21 08:16:38;;;;;;;2.20;2.00;;;15.10;73.70;;;;;;5096706;28;20050;-70
2022/09/21 08:19:04;;;;;;;2.30;2.10;;;15.20;73.60;;;;;;5078525;28;20477;-71
2022/09/21 08:21:29;;;;;;;2.22;2.03;;;15.20;73.50;;;;;;5062051;28;20024;-68
2022/09/21 08:23:56;;;;;;;2.03;1.90;;;15.30;73.40;;;;;;5078735;28;20119;-73
2022/09/21 08:26:23;;;;;;;2.30;2.10;;;15.40;73.20;;;;;;5078526;28;20032;-67
2022/09/21 08:28:51;;;;;;;1.75;1.65;;;15.50;73.10;;;;;;5096365;28;20028;-68
2022/09/21 08:31:19;;;;;;;2.78;2.28;;;15.50;73.00;;;;;;5096735;28;20351;-69
2022/09/21 08:33:45;;;;;;;2.10;1.90;;;15.60;72.90;;;;;;5078304;28;20032;-69
2022/09/21 08:36:11;;;;;;;3.05;1.90;;;15.60;72.70;;;;;;5077975;28;20031;-67
2022/09/21 08:38:38;;;;;;;2.75;2.10;;;15.70;72.70;;;;;;5078378;28;20450;-69
2022/09/21 08:41:36;;;;;;;2.10;2.00;;;15.70;72.50;;;;;;5096752;28;20020;-69
2022/09/21 08:44:15;;;;;;;2.30;2.10;;;15.80;72.50;;;;;;5040505;28;20087;-68
2022/09/21 08:46:43;;;;;;;2.08;1.90;;;15.80;72.30;;;;;;5096351;28;20024;-68
2022/09/21 08:49:24;;;;;;;2.25;1.85;;;15.80;72.20;;;;;;5095990;28;20492;-71
2022/09/21 08:52:00;;;;;;;1.90;1.80;;;15.90;72.30;;;;;;5094837;28;20051;-69
2022/09/21 08:54:50;;;;;;;2.20;1.98;;;15.90;72.20;;;;;;5078031;28;20086;-68
2022/09/21 08:57:17;;;;;;;1.98;1.88;;;15.90;72.00;;;;;;5078124;28;20081;-68
2022/09/21 08:59:45;;;;;;;1.92;1.83;;;15.90;72.10;;;;;;5095845;28;20028;-69
2022/09/21 09:02:42;;;;;;;2.13;1.80;;;15.90;72.10;;;;;;5077776;28;20020;-68
2022/09/21 09:05:41;;;;;;;2.22;2.10;;;15.90;72.10;;;;;;5095705;28;20548;-67
2022/09/21 09:08:26;;;;;;;2.15;1.95;;;16.00;72.10;;;;;;5095950;28;20024;-68
2022/09/21 09:11:05;;;;;;;1.60;1.50;;;16.00;72.00;;;;;;5077617;28;20058;-68
2022/09/21 09:13:42;;;;;;;1.85;1.75;;;16.00;72.10;;;;;;5095856;28;20043;-68
2022/09/21 09:16:35;;;;;;;2.10;1.90;;;16.10;72.10;;;;;;5096035;28;20054;-68
2022/09/21 09:19:01;;;;;;;1.77;1.67;;;16.30;71.90;;;;;;5080254;28;20039;-68
2022/09/21 09:21:40;;;;;;;1.65;1.55;;;16.40;71.50;;;;;;5077281;28;20020;-68
2022/09/21 09:24:31;;;;;;;1.60;1.50;;;16.50;71.30;;;;;;5077055;28;20032;-72
2022/09/21 09:27:14;;;;;;;1.67;1.58;;;16.60;70.80;;;;;;5077091;28;20123;-70
2022/09/21 09:29:51;;;;;;;1.40;1.30;;;16.70;70.90;;;;;;5077303;28;20101;-69
2022/09/21 09:32:17;;;;;;;1.85;1.58;;;16.60;70.80;;;;;;5095532;28;20058;-69
2022/09/21 09:35:15;;;;;;;2.08;1.73;;;16.60;70.70;;;;;;5077298;28;20074;-69
2022/09/21 09:37:44;;;;;;;1.27;1.27;;;16.60;70.50;;;;;;5077053;28;20028;-68
2022/09/21 09:40:12;;;;;;;1.65;1.55;;;16.50;70.70;;;;;;5095303;28;20042;-69
2022/09/21 09:42:45;;;;;;;1.67;1.40;;;16.50;70.70;;;;;;5079069;28;20482;-68
2022/09/21 09:45:11;;;;;;;1.40;1.35;;;16.50;70.70;;;;;;5094219;28;20123;-68
2022/09/21 09:48:04;;;;;;;1.45;1.35;;;16.50;70.80;;;;;;5093640;28;20116;-68
2022/09/21 09:50:36;;;;;;;1.40;1.30;;;16.50;70.50;;;;;;5093507;28;20089;-69
2022/09/21 09:53:06;;;;;;;1.10;1.10;;;16.60;70.50;;;;;;5093701;28;20032;-71
2022/09/21 09:55:39;;;;;;;1.10;1.10;;;16.70;70.30;;;;;;5093576;28;20058;-69
2022/09/21 09:58:38;;;;;;;1.50;1.40;;;16.80;70.20;;;;;;5095076;28;20020;-70
2022/09/21 10:01:05;;;;;;;1.63;1.52;;;16.80;69.50;;;;;;5093517;28;20020;-69
2022/09/21 10:03:30;;;;;;;1.38;1.27;;;16.90;69.80;;;;;;5094182;28;20032;-68
2022/09/21 10:05:56;;;;;;;1.33;1.27;;;16.90;69.70;;;;;;5094579;28;20074;-68
2022/09/21 10:08:38;;;;;;;1.77;1.30;;;17.00;69.70;;;;;;5094677;28;20355;-68
2022/09/21 10:11:04;;;;;;;1.60;1.50;;;17.00;69.40;;;;;;5094546;28;20541;-69
2022/09/21 10:13:42;;;;;;;1.45;1.40;;;17.10;69.20;;;;;;5093104;28;20032;-68
2022/09/21 10:16:16;;;;;;;1.50;1.40;;;17.10;69.10;;;;;;5093089;28;20047;-68
2022/09/21 10:18:51;;;;;;;1.45;1.35;;;17.10;69.00;;;;;;5094372;28;20028;-69
2022/09/21 10:21:22;;;;;;;1.42;1.33;;;17.00;69.00;;;;;;5094664;28;20451;-68
2022/09/21 10:23:51;;;;;;;1.27;1.20;;;16.90;69.00;;;;;;5093242;28;20068;-69
2022/09/21 10:26:18;;;;;;;1.30;1.20;;;16.90;69.00;;;;;;5092887;28;20062;-70
2022/09/21 10:28:58;;;;;;;1.40;1.30;;;16.90;69.00;;;;;;5093901;28;20016;-67
2022/09/21 10:31:27;;;;;;;1.80;1.40;;;16.80;68.70;;;;;;5094472;28;20025;-68
2022/09/21 10:34:13;;;;;;;1.00;1.00;;;16.70;69.00;;;;;;5094277;28;20530;-69
2022/09/21 10:36:39;;;;;;;1.20;1.20;;;16.70;68.80;;;;;;5092162;28;20449;-69
2022/09/21 10:39:19;;;;;;;1.17;1.17;;;16.60;68.80;;;;;;5094106;28;20123;-68
2022/09/21 10:41:53;;;;;;;1.20;1.20;;;16.60;68.80;;;;;;5093214;28;20378;-68
2022/09/21 10:44:22;;;;;;;1.10;1.10;;;16.60;68.80;;;;;;5094221;28;20052;-69
2022/09/21 10:46:49;;;;;;;1.40;1.30;;;16.60;68.90;;;;;;5059184;28;20032;-69
2022/09/21 10:49:27;;;;;;;1.65;1.55;;;16.70;68.80;;;;;;5094080;28;20028;-71
2022/09/21 10:51:57;;;;;;;1.50;1.40;;;16.70;68.60;;;;;;5076352;28;20394;-69
2022/09/21 10:54:30;;;;;;;1.50;1.40;;;16.80;68.80;;;;;;5075891;28;20043;-69
2022/09/21 10:57:01;;;;;;;1.50;1.40;;;16.90;68.70;;;;;;5075786;28;20473;-69
2022/09/21 10:59:36;;;;;;;1.50;1.40;;;17.00;68.50;;;;;;5075721;28;20031;-68
2022/09/21 11:02:22;;;;;;;1.50;1.40;;;17.10;68.30;;;;;;5093823;28;20024;-69
2022/09/21 11:04:54;;;;;;;1.40;1.30;;;17.20;68.80;;;;;;5093666;28;20032;-68
2022/09/21 11:07:36;;;;;;;1.70;1.60;;;17.30;68.00;;;;;;5094275;28;20035;-68
2022/09/21 11:10:34;;;;;;;1.13;1.13;;;17.30;67.40;;;;;;5093690;28;20028;-68
2022/09/21 11:13:27;;;;;;;1.48;1.38;;;17.40;67.50;;;;;;5093737;28;20024;-69
2022/09/21 11:16:12;;;;;;;1.23;1.23;;;17.40;67.20;;;;;;5096617;28;20423;-67
2022/09/21 11:18:50;;;;;;;1.20;1.20;;;17.50;66.80;;;;;;5079591;28;20034;-67
2022/09/21 11:21:21;;;;;;;1.30;1.30;;;17.50;67.10;;;;;;5097973;28;20381;-68
2022/09/21 11:24:02;;;;;;;1.27;1.25;;;17.60;67.00;;;;;;5097831;28;20032;-69
2022/09/21 11:26:45;;;;;;;1.50;1.40;;;17.60;66.80;;;;;;5079853;28;20065;-68
2022/09/21 11:29:18;;;;;;;1.20;1.20;;;17.60;66.20;;;;;;5097747;28;20032;-68
2022/09/21 11:32:10;;;;;;;1.42;1.33;;;17.70;66.50;;;;;;5079972;28;20358;-69
2022/09/21 11:34:59;;;;;;;1.00;1.00;;;17.70;66.00;;;;;;5079459;28;20492;-68
2022/09/21 11:37:50;;;;;;;1.63;1.42;;;17.80;65.80;;;;;;5079480;28;20024;-69
2022/09/21 11:40:37;;;;;;;1.27;1.17;;;17.80;65.90;;;;;;5097604;28;20043;-68
2022/09/21 11:43:56;;;;;;;1.20;1.20;;;17.80;65.40;;;;;;5083219;28;20486;-68
2022/09/21 11:46:34;;;;;;;1.30;1.30;;;17.70;64.90;;;;;;5018467;28;20060;-68
2022/09/21 11:49:28;;;;;;;1.50;1.30;;;17.70;65.40;;;;;;5096046;28;20024;-68
2022/09/21 11:52:10;;;;;;;1.27;1.17;;;17.70;65.00;;;;;;5097017;28;20028;-69
2022/09/21 11:55:04;;;;;;;1.17;1.15;;;17.70;65.20;;;;;;5095989;28;20028;-70
2022/09/21 11:57:47;;;;;;;1.02;1.02;;;17.70;65.20;;;;;;5097205;28;20445;-69
2022/09/21 12:00:16;;;;;;;1.27;1.17;;;17.70;65.10;;;;;;5095724;28;20031;-67
2022/09/21 12:03:09;;;;;;;1.40;1.30;;;17.70;65.20;;;;;;5097077;28;20253;-69
2022/09/21 12:05:55;;;;;;;1.17;1.17;;;17.70;64.70;;;;;;5095934;28;20024;-67
2022/09/21 12:08:42;;;;;;;1.48;1.20;;;17.70;65.00;;;;;;5095916;28;20031;-69
2022/09/21 12:11:29;;;;;;;1.50;1.40;;;17.70;64.40;;;;;;5096811;28;20369;-69
2022/09/21 12:14:06;;;;;;;1.38;1.27;;;17.70;64.40;;;;;;5096940;28;20036;-68
2022/09/21 12:16:47;;;;;;;1.25;1.25;;;17.60;64.50;;;;;;5095712;28;20024;-68
2022/09/21 12:19:45;;;;;;;1.15;1.05;;;17.60;64.70;;;;;;5095544;28;20081;-69
2022/09/21 12:22:20;;;;;;;1.20;1.10;;;17.70;64.30;;;;;;5096422;28;20059;-68
2022/09/21 12:24:51;;;;;;;1.13;1.10;;;17.80;64.50;;;;;;5096573;28;20035;-68
2022/09/21 12:27:41;;;;;;;0.98;0.98;;;17.80;64.20;;;;;;5096458;28;20074;-69
2022/09/21 12:30:14;;;;;;;1.00;1.00;;;17.80;63.70;;;;;;5088017;28;20036;-69
2022/09/21 12:33:04;;;;;;;1.00;1.00;;;17.70;64.10;;;;;;5096783;28;20040;-68
2022/09/21 12:35:41;;;;;;;1.20;1.10;;;17.60;63.80;;;;;;5095325;28;20032;-67
2022/09/21 12:38:23;;;;;;;1.25;1.15;;;17.60;64.10;;;;;;5095509;28;20454;-72
2022/09/21 12:41:04;;;;;;;1.42;1.00;;;17.50;64.00;;;;;;5096345;28;20028;-68
2022/09/21 12:43:57;;;;;;;1.20;1.20;;;17.50;64.40;;;;;;5095178;28;20047;-69
2022/09/21 12:46:31;;;;;;;1.00;1.00;;;17.40;64.40;;;;;;5096806;28;20024;-68
2022/09/21 12:49:04;;;;;;;1.50;1.40;;;17.40;64.50;;;;;;5096389;28;20029;-67
2022/09/21 12:51:39;;;;;;;1.05;0.93;;;17.40;64.60;;;;;;5094969;28;20039;-69
2022/09/21 12:54:15;;;;;;;1.13;1.13;;;17.60;64.80;;;;;;5094834;28;20485;-69
2022/09/21 12:57:08;;;;;;;1.40;1.30;;;17.50;64.70;;;;;;5094935;28;20066;-68
2022/09/21 13:00:07;;;;;;;1.20;1.10;;;17.60;64.70;;;;;;5093892;28;20055;-68
2022/09/21 13:02:42;;;;;;;1.05;1.05;;;17.70;64.60;;;;;;5095813;28;20053;-69
2022/09/21 13:05:23;;;;;;;1.90;1.80;;;17.80;64.60;;;;;;5094762;28;20032;-69
2022/09/21 13:08:02;;;;;;;1.02;1.02;;;17.90;64.50;;;;;;5094486;28;20024;-68
2022/09/21 13:10:27;;;;;;;1.23;1.23;;;18.10;64.10;;;;;;5094680;28;20045;-68
2022/09/21 13:13:00;;;;;;;1.25;1.13;;;18.20;64.10;;;;;;5094582;28;20136;-67
2022/09/21 13:15:30;;;;;;;1.20;1.20;;;18.20;63.90;;;;;;5095482;28;20488;-69
2022/09/21 13:17:58;;;;;;;2.20;1.20;;;18.20;64.30;;;;;;5094366;28;20466;-72
2022/09/21 13:20:25;;;;;;;1.00;1.00;;;18.20;63.60;;;;;;5094554;28;20024;-68